Time;durP1;ratioP1;P1;durP2;ratioP2;P2;SDS_P1;SDS_P2;PMS_P1;PMS_P2;Temp;Humidity;BMP_temperature;BMP_pressure;BME280_temperature;BME280_humidity;BME280_pressure;Samples;Min_cycle;Max_cycle;Signal;HPM_P1;HPM_P2
2022/03/19 00:00:04;;;;;;;36.65;21.50;;;;;;;5.62;58.47;102118.22;4516470;31;33876;-68
2022/03/19 00:02:43;;;;;;;40.53;22.45;;;;;;;5.41;59.17;102116.69;4515905;31;33832;-67
2022/03/19 00:05:11;;;;;;;39.35;20.90;;;;;;;5.16;59.37;102118.34;4515941;31;33985;-67
2022/03/19 00:07:40;;;;;;;40.50;22.27;;;;;;;5.24;58.86;102121.09;4515962;31;33791;-67
2022/03/19 00:10:09;;;;;;;39.35;22.23;;;;;;;5.41;58.14;102111.31;4516123;31;34727;-68
2022/03/19 00:12:40;;;;;;;41.55;23.12;;;;;;;5.16;58.97;102107.56;4514676;31;32903;-68
2022/03/19 00:15:08;;;;;;;34.67;21.35;;;;;;;5.52;58.07;102112.91;4515365;31;33620;-68
2022/03/19 00:17:37;;;;;;;41.20;22.30;;;;;;;5.76;57.28;102104.13;4516063;31;34377;-67
2022/03/19 00:20:05;;;;;;;37.83;21.33;;;;;;;5.75;57.56;102110.53;4514759;31;33947;-68
2022/03/19 00:22:33;;;;;;;39.13;22.67;;;;;;;5.60;58.21;102107.59;4514557;31;33678;-67
2022/03/19 00:25:00;;;;;;;39.90;22.98;;;;;;;5.35;58.96;102104.69;4514846;31;34128;-67
2022/03/19 00:27:28;;;;;;;41.55;23.38;;;;;;;5.46;58.68;102105.47;4515471;31;33453;-67
2022/03/19 00:29:55;;;;;;;39.55;22.98;;;;;;;5.57;58.69;102104.34;4515949;31;33941;-67
2022/03/19 00:32:23;;;;;;;41.92;22.23;;;;;;;5.85;57.80;102097.81;4516078;31;34313;-67
2022/03/19 00:34:50;;;;;;;39.20;21.42;;;;;;;5.64;58.14;102098.19;4515418;31;33995;-67
2022/03/19 00:37:18;;;;;;;42.67;23.27;;;;;;;5.57;58.36;102098.97;4515674;31;33690;-67
2022/03/19 00:39:46;;;;;;;37.30;21.10;;;;;;;5.50;58.61;102096.06;4515049;31;34023;-67
2022/03/19 00:42:13;;;;;;;37.22;20.70;;;;;;;5.75;58.01;102092.53;4518786;31;34095;-69
2022/03/19 00:44:42;;;;;;;38.72;21.77;;;;;;;5.67;58.44;102092.47;4531070;31;34329;-67
2022/03/19 00:47:09;;;;;;;36.83;21.75;;;;;;;5.47;58.91;102093.69;4523018;31;33772;-67
2022/03/19 00:49:37;;;;;;;38.65;22.48;;;;;;;5.31;59.30;102094.41;4515646;31;33613;-67
2022/03/19 00:52:04;;;;;;;39.78;21.77;;;;;;;4.89;60.61;102098.59;4515952;31;33969;-67
2022/03/19 00:54:32;;;;;;;37.63;21.25;;;;;;;5.75;58.06;102084.44;4513386;31;34000;-67
2022/03/19 00:56:59;;;;;;;37.47;20.80;;;;;;;5.51;58.77;102087.00;4514591;31;33673;-67
2022/03/19 00:59:27;;;;;;;33.97;20.08;;;;;;;5.75;58.13;102080.91;4516048;31;34055;-67
2022/03/19 01:01:56;;;;;;;36.58;20.80;;;;;;;5.43;59.03;102073.47;4513805;31;35074;-67
2022/03/19 01:04:24;;;;;;;33.88;19.30;;;;;;;5.65;57.66;102080.19;4515317;31;33555;-67
2022/03/19 01:06:52;;;;;;;32.67;19.80;;;;;;;5.35;58.75;102076.94;4514832;31;34437;-68
2022/03/19 01:09:19;;;;;;;34.88;20.48;;;;;;;5.07;59.36;102079.75;4511189;31;34908;-68
2022/03/19 01:11:47;;;;;;;40.80;22.30;;;;;;;4.91;60.18;102074.25;4515141;31;35018;-68
2022/03/19 01:14:14;;;;;;;34.05;19.33;;;;;;;4.99;60.34;102071.63;4514563;31;34487;-67
2022/03/19 01:16:41;;;;;;;35.33;20.40;;;;;;;5.12;60.22;102072.06;4514755;31;33044;-67
2022/03/19 01:19:09;;;;;;;32.88;20.15;;;;;;;4.86;60.51;102074.72;4515128;31;33864;-67
2022/03/19 01:21:37;;;;;;;34.75;20.17;;;;;;;4.91;60.84;102074.25;4515362;31;34164;-67
2022/03/19 01:24:06;;;;;;;37.00;21.83;;;;;;;5.40;59.70;102068.38;4513842;31;34009;-67
2022/03/19 01:26:33;;;;;;;38.38;21.87;;;;;;;5.45;59.06;102066.94;4515033;31;33548;-67
2022/03/19 01:29:01;;;;;;;37.00;22.00;;;;;;;5.06;60.39;102072.69;4514893;31;34859;-67
2022/03/19 01:31:28;;;;;;;39.33;21.60;;;;;;;5.11;60.21;102064.97;4515283;31;34205;-67
2022/03/19 01:33:56;;;;;;;36.53;21.90;;;;;;;5.30;59.88;102069.34;4514585;31;34102;-67
2022/03/19 01:36:24;;;;;;;37.83;20.98;;;;;;;5.30;60.16;102063.13;4515454;31;33652;-70
2022/03/19 01:38:51;;;;;;;34.90;20.98;;;;;;;5.18;60.01;102056.28;4514129;31;33716;-67
2022/03/19 01:41:19;;;;;;;37.42;21.58;;;;;;;4.92;60.79;102047.19;4514891;31;34878;-68
2022/03/19 01:43:46;;;;;;;33.63;20.75;;;;;;;5.13;60.04;102044.16;4519164;31;34890;-67
2022/03/19 01:46:13;;;;;;;34.83;19.73;;;;;;;4.85;61.10;102046.09;4514796;31;33716;-69
2022/03/19 01:48:41;;;;;;;32.28;19.98;;;;;;;5.29;59.44;102046.13;4514733;31;34983;-67
2022/03/19 01:51:08;;;;;;;35.03;19.77;;;;;;;5.16;59.73;102042.16;4517178;31;35064;-67
2022/03/19 01:53:36;;;;;;;33.67;20.15;;;;;;;5.53;58.81;102041.91;4510295;31;33660;-67
2022/03/19 01:56:04;;;;;;;38.75;22.33;;;;;;;5.86;57.88;102039.38;4516712;31;33458;-68
2022/03/19 01:58:31;;;;;;;39.30;21.80;;;;;;;5.62;58.35;102034.72;4515684;31;33751;-67
2022/03/19 02:00:59;;;;;;;37.50;21.58;;;;;;;5.50;58.60;102039.53;4517480;31;34008;-67
2022/03/19 02:03:28;;;;;;;35.22;20.77;;;;;;;5.67;57.99;102038.59;4515360;31;34726;-68
2022/03/19 02:05:56;;;;;;;34.88;20.05;;;;;;;5.58;58.09;102033.34;4517027;31;34427;-67
2022/03/19 02:08:24;;;;;;;33.08;20.37;;;;;;;5.46;58.50;102030.06;4502949;31;34408;-68
2022/03/19 02:10:51;;;;;;;35.03;20.05;;;;;;;5.38;58.97;102027.31;4499549;31;33907;-67
2022/03/19 02:13:19;;;;;;;35.60;20.75;;;;;;;5.21;59.26;102029.91;4501246;31;33858;-67
2022/03/19 02:15:46;;;;;;;32.55;20.20;;;;;;;4.67;60.55;102024.59;4516276;31;33346;-69
2022/03/19 02:18:14;;;;;;;33.25;19.70;;;;;;;4.71;60.49;102022.47;4501043;31;34619;-69
2022/03/19 02:20:41;;;;;;;3.12;2.65;;;;;;;5.15;58.97;102017.09;4501055;31;35075;-70
2022/03/19 02:26:06;;;;;;;31.87;19.62;;;;;;;5.06;59.16;102026.94;4516392;31;33520;-68
2022/03/19 02:28:34;;;;;;;34.65;20.35;;;;;;;4.66;59.90;102019.38;4516840;31;34061;-67
2022/03/19 02:31:01;;;;;;;35.35;19.95;;;;;;;5.07;58.71;102020.56;4517268;31;33771;-67
2022/03/19 02:33:29;;;;;;;33.15;19.37;;;;;;;4.47;60.21;102018.53;4516453;31;34223;-68
2022/03/19 02:35:56;;;;;;;31.62;18.83;;;;;;;4.79;59.47;102010.91;4516613;31;33634;-69
2022/03/19 02:38:23;;;;;;;35.83;19.80;;;;;;;4.64;59.65;102019.50;4516245;31;32393;-67
2022/03/19 02:40:51;;;;;;;33.28;19.83;;;;;;;4.82;59.07;102011.47;4516192;31;34802;-69
2022/03/19 02:43:18;;;;;;;32.08;18.33;;;;;;;4.59;59.91;102007.56;4513919;31;34627;-68
2022/03/19 02:45:46;;;;;;;33.70;18.70;;;;;;;4.58;59.67;102013.91;4519402;31;34350;-67
2022/03/19 02:48:14;;;;;;;37.30;19.50;;;;;;;4.18;60.91;102007.13;4516647;31;33519;-67
2022/03/19 02:50:42;;;;;;;35.15;20.40;;;;;;;3.71;62.40;102000.03;4516544;31;33696;-67
2022/03/19 02:53:11;;;;;;;33.25;19.55;;;;;;;4.07;61.17;102005.50;4515046;31;33821;-67
2022/03/19 02:55:40;;;;;;;1.87;1.77;;;;;;;4.57;59.47;102007.69;4516261;31;33314;-67
2022/03/19 02:58:09;;;;;;;32.30;18.95;;;;;;;4.19;60.84;102003.44;4515087;31;34779;-67
2022/03/19 03:00:37;;;;;;;30.02;18.77;;;;;;;4.14;61.21;102011.97;4516269;31;34690;-67
2022/03/19 03:03:05;;;;;;;32.88;18.65;;;;;;;3.81;62.19;102003.53;4516011;31;34727;-67
2022/03/19 03:05:34;;;;;;;30.15;18.00;;;;;;;3.85;61.81;102004.91;4515341;31;33336;-67
2022/03/19 03:08:03;;;;;;;30.50;18.12;;;;;;;3.31;63.47;102000.34;4516006;31;34440;-67
2022/03/19 03:10:32;;;;;;;32.38;18.83;;;;;;;3.43;63.86;102005.38;4516420;31;35077;-68
2022/03/19 03:12:59;;;;;;;32.13;18.58;;;;;;;3.51;63.45;102001.12;4516364;31;34561;-68
2022/03/19 03:15:27;;;;;;;39.78;19.65;;;;;;;3.73;62.77;101997.22;4515203;31;34470;-67
2022/03/19 03:17:55;;;;;;;33.20;18.67;;;;;;;4.27;60.84;101996.31;4515826;31;33543;-67
2022/03/19 03:20:22;;;;;;;2.42;1.08;;;;;;;3.91;62.01;101998.12;4515128;31;35186;-67
2022/03/19 03:22:50;;;;;;;32.22;18.52;;;;;;;4.34;61.05;102001.09;4515307;31;33464;-68
2022/03/19 03:25:18;;;;;;;29.45;18.20;;;;;;;3.72;62.57;102000.91;4515900;31;33704;-67
2022/03/19 03:27:46;;;;;;;29.83;17.67;;;;;;;3.68;62.91;101998.50;4516121;31;33722;-67
2022/03/19 03:30:15;;;;;;;34.30;18.42;;;;;;;4.27;61.12;102001.69;4516527;31;34191;-67
2022/03/19 03:32:43;;;;;;;32.08;18.20;;;;;;;3.81;62.53;101997.31;4515953;31;34434;-66
2022/03/19 03:35:10;;;;;;;33.88;18.98;;;;;;;4.16;61.73;102001.06;4515332;31;34327;-68
2022/03/19 03:37:38;;;;;;;29.20;18.17;;;;;;;4.35;60.71;102000.94;4514877;31;33841;-67
2022/03/19 03:40:07;;;;;;;29.02;18.33;;;;;;;4.49;60.31;101995.03;4516507;31;34103;-67
2022/03/19 03:42:40;;;;;;;31.98;18.60;;;;;;;3.97;61.89;101993.97;4515722;31;34051;-67
2022/03/19 03:45:08;;;;;;;31.08;17.95;;;;;;;3.84;62.26;101997.00;4518592;31;33320;-67
2022/03/19 03:47:36;;;;;;;30.00;18.95;;;;;;;4.37;60.74;101990.03;4517612;31;33591;-68
2022/03/19 03:50:03;;;;;;;34.38;18.67;;;;;;;4.02;61.54;101997.91;4519497;31;33990;-67
2022/03/19 03:52:31;;;;;;;29.10;18.50;;;;;;;3.86;62.28;101998.53;4516077;31;33823;-67
2022/03/19 03:54:58;;;;;;;31.92;18.25;;;;;;;3.81;62.30;101997.31;4515854;31;33580;-67
2022/03/19 03:57:26;;;;;;;30.30;17.87;;;;;;;4.38;60.48;102002.47;4516300;31;33710;-68
2022/03/19 03:59:54;;;;;;;31.50;18.40;;;;;;;4.18;61.37;101991.03;4516565;31;34905;-67
2022/03/19 04:02:21;;;;;;;32.10;19.02;;;;;;;4.27;61.18;101992.78;4516035;31;33736;-66
2022/03/19 04:04:49;;;;;;;30.00;17.77;;;;;;;4.38;60.56;101997.94;4514368;31;33649;-67
2022/03/19 04:07:16;;;;;;;34.55;19.50;;;;;;;4.71;59.61;101988.34;4516351;31;34544;-70
2022/03/19 04:09:43;;;;;;;34.13;19.33;;;;;;;4.00;61.54;101999.06;4516036;31;34912;-65
2022/03/19 04:12:11;;;;;;;30.02;17.70;;;;;;;3.81;62.33;101992.78;4514545;31;33692;-67
2022/03/19 04:14:40;;;;;;;35.25;20.10;;;;;;;4.21;61.29;101991.56;4514446;31;33548;-70
2022/03/19 04:17:08;;;;;;;31.77;18.77;;;;;;;4.65;59.95;101977.38;4515456;31;34065;-70
2022/03/19 04:19:35;;;;;;;34.00;19.48;;;;;;;4.02;61.71;101979.09;4515124;31;34684;-67
2022/03/19 04:22:03;;;;;;;34.92;19.42;;;;;;;3.85;62.38;101978.06;4515974;31;34109;-66
2022/03/19 04:24:30;;;;;;;32.42;19.35;;;;;;;3.89;62.50;101979.47;4515530;31;33254;-67
2022/03/19 04:26:58;;;;;;;34.30;19.50;;;;;;;4.06;61.99;101979.63;4515937;31;34758;-67
2022/03/19 04:29:26;;;;;;;32.35;20.08;;;;;;;4.13;62.20;101985.28;4514557;31;34784;-66
2022/03/19 04:31:53;;;;;;;32.28;18.75;;;;;;;4.01;62.55;101980.09;4515957;31;33738;-67
2022/03/19 04:34:21;;;;;;;33.45;19.65;;;;;;;4.10;62.33;101979.19;4515802;31;33419;-66
2022/03/19 04:36:49;;;;;;;2.75;1.25;;;;;;;4.30;61.44;101977.22;4514290;31;35488;-68
2022/03/19 04:39:16;;;;;;;36.38;20.30;;;;;;;4.12;61.85;101979.03;4516122;31;34012;-65
2022/03/19 04:41:44;;;;;;;35.60;20.92;;;;;;;4.17;61.63;101975.87;4515831;31;34020;-69
2022/03/19 04:44:11;;;;;;;37.95;21.08;;;;;;;4.42;61.22;101977.81;4514944;31;33313;-66
2022/03/19 04:46:39;;;;;;;35.90;19.27;;;;;;;4.10;62.33;101984.56;4527511;31;34461;-69
2022/03/19 04:49:07;;;;;;;35.25;20.35;;;;;;;4.39;61.64;101974.62;4521074;31;33761;-65
2022/03/19 04:51:38;;;;;;;34.50;19.45;;;;;;;4.21;62.36;101988.03;4515631;31;34505;-67
2022/03/19 04:54:06;;;;;;;34.30;20.65;;;;;;;4.10;62.53;101989.94;4514170;31;34359;-66
2022/03/19 04:56:34;;;;;;;32.33;18.67;;;;;;;3.98;62.83;101987.62;4513613;31;33842;-69
2022/03/19 04:59:03;;;;;;;34.13;19.42;;;;;;;4.50;61.15;101991.34;4514988;31;33986;-66
2022/03/19 05:01:31;;;;;;;34.17;19.80;;;;;;;4.75;60.44;101985.34;4513877;31;34129;-67
2022/03/19 05:04:00;;;;;;;34.97;20.55;;;;;;;5.00;59.77;101991.75;4512477;31;33735;-66
2022/03/19 05:06:28;;;;;;;40.88;21.70;;;;;;;4.53;61.18;101998.25;4515137;31;34771;-65
2022/03/19 05:11:42;;;;;;;36.25;20.77;;;;;;;4.18;62.42;101999.91;4515400;31;34423;-66
2022/03/19 05:14:11;;;;;;;37.80;21.55;;;;;;;4.32;62.02;101993.19;4515125;31;33436;-66
2022/03/19 05:16:39;;;;;;;39.80;21.98;;;;;;;4.28;62.26;101991.81;4514785;31;33961;-66
2022/03/19 05:19:07;;;;;;;32.40;19.35;;;;;;;4.26;62.47;101989.25;4513511;31;34238;-66
2022/03/19 05:21:35;;;;;;;39.72;21.65;;;;;;;4.13;62.75;101996.00;4515400;31;34819;-67
2022/03/19 05:24:02;;;;;;;40.25;22.42;;;;;;;5.08;60.12;101989.97;4516240;31;34635;-69
2022/03/19 05:26:30;;;;;;;35.47;21.80;;;;;;;4.51;61.76;101994.88;4517033;31;33746;-67
2022/03/19 05:28:57;;;;;;;38.78;23.80;;;;;;;4.34;62.62;101996.53;4517408;31;34749;-67
2022/03/19 05:31:36;;;;;;;37.60;22.37;;;;;;;4.54;62.02;101991.88;4514887;31;34018;-66
2022/03/19 05:36:50;;;;;;;37.75;22.83;;;;;;;4.92;61.55;101998.78;4516955;31;33712;-66
2022/03/19 05:39:17;;;;;;;40.30;23.60;;;;;;;4.57;62.09;101996.09;4517185;31;35097;-66
2022/03/19 05:41:45;;;;;;;42.60;24.87;;;;;;;4.54;62.13;101999.13;4517561;31;34030;-66
2022/03/19 05:44:12;;;;;;;42.97;23.85;;;;;;;4.62;61.94;101994.66;4516592;31;33416;-68
2022/03/19 05:46:41;;;;;;;38.88;23.80;;;;;;;4.74;61.65;101987.19;4521693;31;33782;-66
2022/03/19 05:49:08;;;;;;;47.35;27.05;;;;;;;4.40;62.82;101987.88;4525709;31;34088;-70
2022/03/19 05:51:36;;;;;;;2.15;1.70;;;;;;;4.57;62.56;101996.09;4516018;31;34974;-69
2022/03/19 05:54:03;;;;;;;53.13;30.40;;;;;;;4.72;62.32;101991.88;4516772;31;34355;-69
2022/03/19 05:56:32;;;;;;;52.90;30.30;;;;;;;4.39;63.45;101991.56;4517110;31;34715;-69
2022/03/19 05:59:00;;;;;;;44.88;27.37;;;;;;;4.34;63.82;101990.34;4516601;31;33875;-69
2022/03/19 06:01:27;;;;;;;48.38;26.70;;;;;;;4.15;64.31;101996.69;4516430;31;34777;-70
2022/03/19 06:03:56;;;;;;;45.88;26.92;;;;;;;4.25;64.19;101994.78;4516183;31;33691;-67
2022/03/19 06:06:24;;;;;;;51.33;29.15;;;;;;;5.31;61.30;102000.19;4516997;31;34015;-67
2022/03/19 06:08:52;;;;;;;49.55;28.48;;;;;;;5.52;59.27;102003.34;4517072;31;34340;-67
2022/03/19 06:11:20;;;;;;;54.38;28.73;;;;;;;3.92;66.94;102001.62;4517119;31;34855;-66
2022/03/19 06:13:48;;;;;;;51.33;28.92;;;;;;;4.69;63.53;102009.16;4515370;31;34314;-68
2022/03/19 06:16:15;;;;;;;52.28;27.80;;;;;;;4.75;62.45;102005.00;4517129;31;34098;-67
2022/03/19 06:18:49;;;;;;;47.62;27.55;;;;;;;5.35;59.56;102006.94;4517195;31;34251;-65
2022/03/19 06:21:22;;;;;;;48.55;27.08;;;;;;;5.52;58.27;102003.34;4517738;31;34070;-68
2022/03/19 06:23:50;;;;;;;58.65;29.15;;;;;;;5.42;59.24;102010.72;4517627;31;34679;-66
2022/03/19 06:26:20;;;;;;;50.50;27.67;;;;;;;4.50;62.56;102015.53;4509296;31;34786;-68
2022/03/19 06:28:47;;;;;;;44.88;25.05;;;;;;;4.28;63.15;102003.41;4513654;31;34261;-68
2022/03/19 06:31:15;;;;;;;47.53;26.20;;;;;;;4.59;59.70;102011.09;4515727;31;34817;-67
2022/03/19 06:33:42;;;;;;;48.20;26.42;;;;;;;4.69;59.18;102008.31;4515591;31;33317;-68
2022/03/19 06:38:58;;;;;;;52.25;27.80;;;;;;;4.92;58.60;102011.34;4501796;31;35198;-69
2022/03/19 06:41:26;;;;;;;45.85;26.30;;;;;;;5.19;58.48;102009.56;4511469;31;34325;-68
2022/03/19 06:43:53;;;;;;;51.28;28.35;;;;;;;5.34;58.12;102006.13;4517601;31;33495;-64
2022/03/19 06:46:21;;;;;;;46.97;27.35;;;;;;;5.14;58.88;102001.97;4514294;31;34741;-69
2022/03/19 06:48:49;;;;;;;51.17;26.92;;;;;;;5.05;59.03;102010.94;4519170;31;35198;-69
2022/03/19 06:51:18;;;;;;;50.78;28.23;;;;;;;5.10;59.20;102011.34;4511368;31;34000;-70
2022/03/19 06:53:46;;;;;;;47.25;26.20;;;;;;;4.67;60.41;102008.47;4501730;31;33353;-71
2022/03/19 06:56:14;;;;;;;42.13;24.98;;;;;;;5.38;58.08;102019.25;4511298;31;33912;-68
2022/03/19 06:58:42;;;;;;;45.00;26.42;;;;;;;4.89;58.71;102017.91;4517431;31;34261;-65
2022/03/19 07:01:14;;;;;;;42.95;25.50;;;;;;;4.87;58.71;102011.81;4516187;31;33932;-71
2022/03/19 07:03:47;;;;;;;44.50;25.17;;;;;;;4.72;59.38;102016.06;4516326;31;34503;-70
2022/03/19 07:06:16;;;;;;;43.10;25.62;;;;;;;4.98;58.84;102012.59;4517384;31;34673;-66
2022/03/19 07:09:04;;;;;;;34.38;19.40;;;;;;;5.28;57.92;102020.19;4517434;31;34978;-69
2022/03/19 07:11:32;;;;;;;33.67;19.30;;;;;;;5.68;52.70;102017.91;4514323;31;34032;-70
2022/03/19 07:14:01;;;;;;;37.00;20.30;;;;;;;5.18;52.07;102014.06;4517390;31;33388;-72
2022/03/19 07:16:29;;;;;;;32.17;18.12;;;;;;;5.59;52.21;102017.00;4516045;31;34177;-65
2022/03/19 07:18:57;;;;;;;32.20;17.37;;;;;;;6.20;49.21;102019.66;4516606;31;35283;-67
2022/03/19 07:21:25;;;;;;;29.45;16.27;;;;;;;6.01;48.41;102021.62;4517392;31;34070;-70
2022/03/19 07:23:52;;;;;;;29.23;16.95;;;;;;;6.06;47.83;102011.19;4515337;31;33504;-68
2022/03/19 07:26:20;;;;;;;31.73;16.87;;;;;;;6.78;45.22;102021.44;4517026;31;33805;-68
2022/03/19 07:28:47;;;;;;;31.02;17.48;;;;;;;6.00;47.19;102025.31;4517707;31;34226;-66
2022/03/19 07:31:15;;;;;;;29.30;16.20;;;;;;;7.33;44.44;102019.91;4517100;31;33143;-67
2022/03/19 07:33:47;;;;;;;29.83;18.10;;;;;;;7.91;42.90;102017.88;4515481;31;34459;-67
2022/03/19 07:36:15;;;;;;;3.58;2.60;;;;;;;7.79;44.11;102015.53;4517315;31;34938;-66
2022/03/19 07:38:43;;;;;;;31.77;17.20;;;;;;;7.90;43.32;102018.88;4513997;31;35101;-67
2022/03/19 07:43:57;;;;;;;29.67;17.73;;;;;;;7.58;44.11;102018.84;4514203;31;34328;-72
2022/03/19 07:46:27;;;;;;;30.23;17.23;;;;;;;8.34;42.22;102013.75;4514784;31;33785;-65
2022/03/19 07:48:55;;;;;;;31.80;17.75;;;;;;;8.47;41.96;102020.50;4511578;31;34992;-67
2022/03/19 07:51:22;;;;;;;28.52;18.17;;;;;;;8.38;41.71;102019.63;4516572;31;33733;-69
2022/03/19 07:53:50;;;;;;;31.02;18.33;;;;;;;7.48;43.72;102026.28;4517110;31;33463;-71
2022/03/19 07:56:17;;;;;;;33.80;18.85;;;;;;;7.81;43.09;102028.88;4517539;31;33921;-71
2022/03/19 07:58:50;;;;;;;30.45;18.98;;;;;;;7.54;43.52;102038.25;4517192;31;33991;-70
2022/03/19 08:01:18;;;;;;;33.25;18.55;;;;;;;6.83;45.48;102027.19;4514763;31;33925;-71
2022/03/19 08:03:47;;;;;;;32.78;18.52;;;;;;;7.03;44.57;102030.37;4516029;31;33197;-71
2022/03/19 08:06:14;;;;;;;28.65;17.95;;;;;;;7.29;44.56;102041.00;4513869;31;33993;-74
2022/03/19 08:08:42;;;;;;;29.85;17.77;;;;;;;7.27;44.78;102034.91;4509783;31;34128;-70
2022/03/19 08:11:10;;;;;;;31.58;18.20;;;;;;;7.54;44.42;102035.56;4516392;31;33927;-68
2022/03/19 08:13:38;;;;;;;35.33;18.77;;;;;;;7.42;44.96;102039.63;4514991;31;33384;-68
2022/03/19 08:16:05;;;;;;;29.58;18.65;;;;;;;7.42;44.15;102040.47;4516899;31;33609;-67
2022/03/19 08:18:33;;;;;;;32.97;18.62;;;;;;;7.51;44.47;102033.19;4502583;31;35048;-74
2022/03/19 08:21:01;;;;;;;32.33;18.23;;;;;;;7.29;45.29;102042.84;4514905;31;34122;-73
2022/03/19 08:23:28;;;;;;;31.80;18.62;;;;;;;7.52;44.65;102033.03;4516226;31;33221;-67
2022/03/19 08:25:56;;;;;;;32.35;18.45;;;;;;;7.89;43.80;102036.97;4516050;31;33874;-68
2022/03/19 08:28:23;;;;;;;35.35;18.98;;;;;;;8.05;44.12;102037.91;4513222;31;34077;-66
2022/03/19 08:30:51;;;;;;;33.67;19.48;;;;;;;8.13;43.88;102030.59;4513973;31;33987;-72
2022/03/19 08:33:19;;;;;;;31.05;17.52;;;;;;;8.65;43.68;102028.31;4515683;31;33473;-66
2022/03/19 08:35:46;;;;;;;27.73;16.85;;;;;;;8.39;42.14;102035.69;4516487;31;33093;-67
2022/03/19 08:41:00;;;;;;;25.05;16.60;;;;;;;7.31;45.11;102038.12;4516550;31;33865;-67
2022/03/19 08:43:30;;;;;;;27.58;16.87;;;;;;;8.32;43.25;102029.31;4514499;31;33241;-69
2022/03/19 08:45:58;;;;;;;28.45;16.98;;;;;;;9.08;41.98;102034.88;4515808;31;34031;-66
2022/03/19 08:48:26;;;;;;;29.48;17.08;;;;;;;8.74;41.60;102038.88;4514141;31;34319;-68
2022/03/19 08:50:54;;;;;;;29.08;16.52;;;;;;;8.26;42.10;102029.19;4516202;31;34026;-67
2022/03/19 08:53:21;;;;;;;27.50;16.42;;;;;;;8.41;42.79;102035.56;4514296;31;34504;-65
2022/03/19 08:55:49;;;;;;;27.45;16.02;;;;;;;8.24;42.08;102034.78;4516417;31;34009;-68
2022/03/19 08:58:16;;;;;;;27.87;16.45;;;;;;;8.59;41.83;102033.41;4516188;31;34266;-65
2022/03/19 09:00:44;;;;;;;27.02;16.20;;;;;;;8.85;41.37;102031.38;4515230;31;33911;-67
2022/03/19 09:03:12;;;;;;;25.40;15.85;;;;;;;8.70;40.99;102028.59;4515329;31;33308;-67
2022/03/19 09:05:40;;;;;;;27.98;16.62;;;;;;;8.93;41.23;102037.56;4514253;31;34071;-65
2022/03/19 09:08:07;;;;;;;27.52;15.73;;;;;;;8.94;41.96;102028.41;4516327;31;35091;-70
2022/03/19 09:10:35;;;;;;;26.67;15.63;;;;;;;9.01;41.13;102033.94;4516345;31;34216;-67
2022/03/19 09:13:02;;;;;;;31.77;15.98;;;;;;;8.68;42.56;102030.63;4515612;31;33727;-68
2022/03/19 09:15:30;;;;;;;27.13;15.88;;;;;;;8.58;41.62;102026.31;4516497;31;34123;-67
2022/03/19 09:17:58;;;;;;;25.75;16.17;;;;;;;9.11;41.24;102034.50;4516043;31;34199;-66
2022/03/19 09:20:25;;;;;;;25.17;14.95;;;;;;;9.28;40.60;102029.78;4504886;31;33860;-67
2022/03/19 09:22:52;;;;;;;26.55;14.87;;;;;;;9.22;39.42;102025.09;4510827;31;33273;-66
2022/03/19 09:25:20;;;;;;;27.20;14.85;;;;;;;9.68;39.15;102033.13;4512750;31;34488;-68
2022/03/19 09:27:47;;;;;;;29.83;14.85;;;;;;;9.92;38.37;102026.56;4514572;31;34252;-70
2022/03/19 09:30:15;;;;;;;20.62;13.73;;;;;;;9.65;38.22;102026.19;4513461;31;34760;-67
2022/03/19 09:32:42;;;;;;;23.05;14.70;;;;;;;9.60;39.28;102020.47;4514008;31;32863;-68
2022/03/19 09:35:27;;;;;;;23.23;14.73;;;;;;;9.73;38.19;102027.97;4514178;31;34779;-68
2022/03/19 09:37:54;;;;;;;26.12;15.13;;;;;;;9.69;37.14;102026.66;4507876;31;33823;-70
2022/03/19 09:40:23;;;;;;;24.55;14.40;;;;;;;9.40;38.60;102032.91;4512986;31;34036;-67
2022/03/19 09:42:54;;;;;;;27.20;14.07;;;;;;;9.31;39.57;102036.69;4512192;31;31786;-66
2022/03/19 09:45:23;;;;;;;27.37;14.23;;;;;;;9.28;39.12;102027.09;4502666;31;34520;-68
2022/03/19 09:47:51;;;;;;;28.17;14.38;;;;;;;9.37;37.85;102028.69;4495463;31;32801;-68
2022/03/19 09:50:19;;;;;;;24.00;14.30;;;;;;;10.05;37.71;102031.31;4512192;31;34621;-66
2022/03/19 09:52:51;;;;;;;20.48;12.77;;;;;;;9.42;38.93;102028.16;4505006;31;34311;-65
2022/03/19 09:55:28;;;;;;;23.38;13.32;;;;;;;9.68;36.51;102024.16;4504110;31;34043;-67
2022/03/19 09:57:57;;;;;;;23.73;12.88;;;;;;;9.89;36.49;102026.09;4502194;31;34001;-64
2022/03/19 10:00:26;;;;;;;20.95;13.50;;;;;;;9.83;37.26;102016.84;4511525;31;33859;-68
2022/03/19 10:02:53;;;;;;;23.40;14.23;;;;;;;9.41;38.36;102015.59;4514262;31;33742;-69
2022/03/19 10:10:55;;;;;;;22.70;13.13;;;;;;;10.84;35.62;102015.09;4504334;31;34062;-68
2022/03/19 10:13:25;;;;;;;22.30;13.48;;;;;;;10.88;35.98;102015.53;4509548;31;34430;-67
2022/03/19 10:15:53;;;;;;;22.05;12.77;;;;;;;10.85;35.94;102007.78;4507618;31;33744;-67
2022/03/19 10:18:31;;;;;;;22.58;13.55;;;;;;;10.85;36.48;102011.31;4506792;31;34997;-67
2022/03/19 10:21:04;;;;;;;18.58;12.18;;;;;;;12.10;34.02;102000.66;4511941;31;34665;-69
2022/03/19 10:23:39;;;;;;;22.58;14.43;;;;;;;10.74;35.39;102002.87;4500132;31;33668;-67
2022/03/19 10:26:07;;;;;;;;;;;;;;;10.21;37.34;102014.78;4513278;31;33923;-67
2022/03/19 10:28:36;;;;;;;21.25;13.38;;;;;;;10.86;36.27;102009.44;4512889;31;35509;-68
2022/03/19 10:31:04;;;;;;;20.52;12.30;;;;;;;11.58;34.38;101999.34;4513806;31;34754;-66
2022/03/19 10:33:32;;;;;;;20.73;12.75;;;;;;;11.54;35.02;102006.22;4516556;31;33469;-66
2022/03/19 10:36:07;;;;;;;22.77;13.32;;;;;;;12.09;33.56;101999.81;4514267;31;35028;-68
2022/03/19 10:38:44;;;;;;;21.65;12.37;;;;;;;11.50;33.82;101995.72;4505250;31;34848;-67
2022/03/19 10:41:20;;;;;;;23.60;12.93;;;;;;;11.73;33.98;101997.31;4513107;31;33841;-67
2022/03/19 10:43:48;;;;;;;19.23;11.88;;;;;;;12.06;32.63;101993.94;4516579;31;34423;-68
2022/03/19 10:46:19;;;;;;;20.25;13.05;;;;;;;11.60;33.16;101992.66;4503163;31;33818;-68
2022/03/19 10:48:52;;;;;;;18.90;12.37;;;;;;;11.87;33.27;101990.06;4513324;31;34191;-67
2022/03/19 10:51:20;;;;;;;19.37;11.88;;;;;;;12.25;33.43;101992.34;4508423;31;34782;-68
2022/03/19 10:53:49;;;;;;;21.50;13.15;;;;;;;12.53;31.84;101992.19;4515295;31;33411;-68
2022/03/19 10:56:17;;;;;;;19.17;12.05;;;;;;;12.14;31.85;101982.03;4516637;31;33748;-67
2022/03/19 10:59:00;;;;;;;21.30;11.93;;;;;;;11.97;32.61;101987.84;4513046;31;34144;-67
2022/03/19 11:01:29;;;;;;;22.52;12.30;;;;;;;11.80;32.56;101976.44;4515778;31;34640;-68
2022/03/19 11:03:57;;;;;;;18.48;11.50;;;;;;;12.71;32.63;101975.25;4516528;31;33569;-68
2022/03/19 11:06:25;;;;;;;19.75;12.05;;;;;;;12.59;31.77;101975.03;4500684;31;33973;-68
2022/03/19 11:08:54;;;;;;;19.25;11.40;;;;;;;11.22;32.18;101976.72;4503179;31;34188;-67
2022/03/19 11:11:47;;;;;;;20.05;12.10;;;;;;;11.50;31.34;101973.13;4515368;31;34074;-67
2022/03/19 11:14:22;;;;;;;19.55;11.05;;;;;;;12.19;31.39;101965.94;4516190;31;33467;-67
2022/03/19 11:17:24;;;;;;;19.08;11.32;;;;;;;12.76;30.22;101961.81;4504106;31;34055;-67
2022/03/19 11:19:54;;;;;;;18.17;11.57;;;;;;;12.21;29.74;101959.25;4512098;31;33830;-67
2022/03/19 11:22:22;;;;;;;18.05;11.20;;;;;;;12.77;29.47;101955.34;4516027;31;34007;-67
2022/03/19 11:24:59;;;;;;;15.55;10.18;;;;;;;12.70;27.88;101958.06;4513960;31;33558;-69
2022/03/19 11:27:29;;;;;;;19.00;11.12;;;;;;;12.50;29.25;101951.75;4504498;31;34709;-68
2022/03/19 11:29:59;;;;;;;14.73;10.02;;;;;;;12.30;28.83;101943.56;4510284;31;33674;-70
2022/03/19 11:32:26;;;;;;;17.80;10.88;;;;;;;12.34;27.54;101942.09;4508942;31;34783;-68
2022/03/19 11:34:59;;;;;;;15.75;9.98;;;;;;;12.20;27.68;101937.66;4511971;31;33084;-67
2022/03/19 11:38:01;;;;;;;15.90;9.77;;;;;;;12.21;27.49;101923.84;4509762;31;34140;-68
2022/03/19 11:40:32;;;;;;;16.87;10.27;;;;;;;11.85;28.67;101926.88;4508312;31;32910;-68
2022/03/19 11:43:17;;;;;;;;;;;;;;;12.35;28.06;101932.03;4514112;31;34790;-67
2022/03/19 11:46:09;;;;;;;16.70;9.93;;;;;;;11.73;29.16;101926.62;4515102;31;34290;-67